sensor_id;sensor_type;location;lat;lon;timestamp;P1;durP1;ratioP1;P2;durP2;ratioP2
11473;SDS011;5793;52.238;13.438;2023-02-11T00:01:18;57.07;;;29.37;;
11473;SDS011;5793;52.238;13.438;2023-02-11T00:03:47;48.73;;;27.10;;
11473;SDS011;5793;52.238;13.438;2023-02-11T00:06:16;50.97;;;28.43;;
11473;SDS011;5793;52.238;13.438;2023-02-11T00:08:44;53.93;;;28.43;;
11473;SDS011;5793;52.238;13.438;2023-02-11T00:11:12;56.70;;;29.10;;
11473;SDS011;5793;52.238;13.438;2023-02-11T00:13:41;54.20;;;29.07;;
11473;SDS011;5793;52.238;13.438;2023-02-11T00:16:12;51.13;;;27.73;;
11473;SDS011;5793;52.238;13.438;2023-02-11T00:18:41;57.17;;;29.60;;
11473;SDS011;5793;52.238;13.438;2023-02-11T00:21:10;54.07;;;28.67;;
11473;SDS011;5793;52.238;13.438;2023-02-11T00:23:41;56.57;;;29.63;;
11473;SDS011;5793;52.238;13.438;2023-02-11T00:26:10;54.83;;;28.53;;
11473;SDS011;5793;52.238;13.438;2023-02-11T00:28:39;49.93;;;27.33;;
11473;SDS011;5793;52.238;13.438;2023-02-11T00:31:07;50.33;;;28.53;;
11473;SDS011;5793;52.238;13.438;2023-02-11T00:33:35;52.60;;;27.57;;
11473;SDS011;5793;52.238;13.438;2023-02-11T00:36:03;49.17;;;27.20;;
11473;SDS011;5793;52.238;13.438;2023-02-11T00:38:31;52.77;;;28.27;;
11473;SDS011;5793;52.238;13.438;2023-02-11T00:41:00;51.43;;;28.80;;
11473;SDS011;5793;52.238;13.438;2023-02-11T00:43:28;52.63;;;29.47;;
11473;SDS011;5793;52.238;13.438;2023-02-11T00:45:56;52.83;;;27.97;;
11473;SDS011;5793;52.238;13.438;2023-02-11T00:48:24;51.47;;;27.53;;
11473;SDS011;5793;52.238;13.438;2023-02-11T00:50:52;50.27;;;27.87;;
11473;SDS011;5793;52.238;13.438;2023-02-11T00:53:20;47.77;;;28.37;;
11473;SDS011;5793;52.238;13.438;2023-02-11T00:55:47;51.53;;;27.90;;
11473;SDS011;5793;52.238;13.438;2023-02-11T00:58:17;52.00;;;28.73;;
11473;SDS011;5793;52.238;13.438;2023-02-11T01:00:45;50.80;;;29.60;;
11473;SDS011;5793;52.238;13.438;2023-02-11T01:03:13;46.30;;;27.37;;
11473;SDS011;5793;52.238;13.438;2023-02-11T01:05:41;48.07;;;27.03;;
11473;SDS011;5793;52.238;13.438;2023-02-11T01:08:08;51.40;;;28.83;;
11473;SDS011;5793;52.238;13.438;2023-02-11T01:10:36;52.23;;;28.33;;
11473;SDS011;5793;52.238;13.438;2023-02-11T01:13:04;55.60;;;29.47;;
11473;SDS011;5793;52.238;13.438;2023-02-11T01:15:33;49.00;;;28.07;;
11473;SDS011;5793;52.238;13.438;2023-02-11T01:18:03;46.43;;;28.53;;
11473;SDS011;5793;52.238;13.438;2023-02-11T01:20:31;49.50;;;28.83;;
11473;SDS011;5793;52.238;13.438;2023-02-11T01:22:59;51.50;;;28.43;;
11473;SDS011;5793;52.238;13.438;2023-02-11T01:25:27;54.67;;;30.10;;
11473;SDS011;5793;52.238;13.438;2023-02-11T01:27:55;50.43;;;27.90;;
11473;SDS011;5793;52.238;13.438;2023-02-11T01:30:22;50.57;;;29.27;;
11473;SDS011;5793;52.238;13.438;2023-02-11T01:32:51;46.20;;;27.43;;
11473;SDS011;5793;52.238;13.438;2023-02-11T01:35:19;52.67;;;29.07;;
11473;SDS011;5793;52.238;13.438;2023-02-11T01:37:47;47.97;;;27.40;;
11473;SDS011;5793;52.238;13.438;2023-02-11T01:40:18;48.97;;;29.10;;
11473;SDS011;5793;52.238;13.438;2023-02-11T01:42:45;46.33;;;26.90;;
11473;SDS011;5793;52.238;13.438;2023-02-11T01:48:23;47.10;;;28.27;;
11473;SDS011;5793;52.238;13.438;2023-02-11T01:50:56;59.13;;;29.30;;
11473;SDS011;5793;52.238;13.438;2023-02-11T01:53:29;50.63;;;27.53;;
11473;SDS011;5793;52.238;13.438;2023-02-11T01:56:16;51.03;;;30.03;;
11473;SDS011;5793;52.238;13.438;2023-02-11T01:59:05;48.97;;;28.03;;
11473;SDS011;5793;52.238;13.438;2023-02-11T02:01:37;49.47;;;28.43;;
11473;SDS011;5793;52.238;13.438;2023-02-11T02:04:10;53.57;;;30.67;;
11473;SDS011;5793;52.238;13.438;2023-02-11T02:06:45;56.37;;;29.33;;
11473;SDS011;5793;52.238;13.438;2023-02-11T02:09:18;54.10;;;29.07;;
11473;SDS011;5793;52.238;13.438;2023-02-11T02:11:49;52.90;;;29.87;;
11473;SDS011;5793;52.238;13.438;2023-02-11T02:14:17;49.90;;;28.67;;
11473;SDS011;5793;52.238;13.438;2023-02-11T02:16:45;52.03;;;30.23;;
11473;SDS011;5793;52.238;13.438;2023-02-11T02:19:23;49.60;;;29.13;;
11473;SDS011;5793;52.238;13.438;2023-02-11T02:22:23;50.00;;;28.93;;
11473;SDS011;5793;52.238;13.438;2023-02-11T02:25:18;53.20;;;28.53;;
11473;SDS011;5793;52.238;13.438;2023-02-11T02:28:01;50.43;;;29.60;;
11473;SDS011;5793;52.238;13.438;2023-02-11T02:30:58;47.57;;;29.47;;
11473;SDS011;5793;52.238;13.438;2023-02-11T02:33:44;48.37;;;28.47;;
11473;SDS011;5793;52.238;13.438;2023-02-11T02:36:18;46.60;;;28.97;;
11473;SDS011;5793;52.238;13.438;2023-02-11T02:38:52;50.40;;;28.73;;
11473;SDS011;5793;52.238;13.438;2023-02-11T02:41:25;53.50;;;30.30;;
11473;SDS011;5793;52.238;13.438;2023-02-11T02:43:56;49.27;;;28.67;;
11473;SDS011;5793;52.238;13.438;2023-02-11T02:46:26;52.47;;;29.73;;
11473;SDS011;5793;52.238;13.438;2023-02-11T02:48:57;51.37;;;29.00;;
11473;SDS011;5793;52.238;13.438;2023-02-11T02:51:29;49.30;;;28.57;;
11473;SDS011;5793;52.238;13.438;2023-02-11T02:54:20;50.40;;;28.20;;
11473;SDS011;5793;52.238;13.438;2023-02-11T02:57:15;53.47;;;29.70;;
11473;SDS011;5793;52.238;13.438;2023-02-11T02:59:56;47.73;;;29.27;;
11473;SDS011;5793;52.238;13.438;2023-02-11T03:02:38;48.73;;;27.83;;
11473;SDS011;5793;52.238;13.438;2023-02-11T03:05:17;50.73;;;29.97;;
11473;SDS011;5793;52.238;13.438;2023-02-11T03:07:50;48.83;;;28.20;;
11473;SDS011;5793;52.238;13.438;2023-02-11T03:10:24;51.60;;;30.73;;
11473;SDS011;5793;52.238;13.438;2023-02-11T03:12:55;54.27;;;31.50;;
11473;SDS011;5793;52.238;13.438;2023-02-11T03:15:24;51.30;;;29.57;;
11473;SDS011;5793;52.238;13.438;2023-02-11T03:17:55;48.87;;;29.13;;
11473;SDS011;5793;52.238;13.438;2023-02-11T03:20:27;51.60;;;28.40;;
11473;SDS011;5793;52.238;13.438;2023-02-11T03:23:00;52.83;;;30.60;;
11473;SDS011;5793;52.238;13.438;2023-02-11T03:25:33;52.17;;;29.77;;
11473;SDS011;5793;52.238;13.438;2023-02-11T03:28:08;47.37;;;28.30;;
11473;SDS011;5793;52.238;13.438;2023-02-11T03:30:40;49.43;;;29.10;;
11473;SDS011;5793;52.238;13.438;2023-02-11T03:33:13;50.70;;;29.87;;
11473;SDS011;5793;52.238;13.438;2023-02-11T03:35:49;51.27;;;31.00;;
11473;SDS011;5793;52.238;13.438;2023-02-11T03:38:22;50.07;;;29.37;;
11473;SDS011;5793;52.238;13.438;2023-02-11T03:40:53;53.07;;;29.07;;
11473;SDS011;5793;52.238;13.438;2023-02-11T03:43:24;52.53;;;30.23;;
11473;SDS011;5793;52.238;13.438;2023-02-11T03:45:54;49.90;;;29.60;;
11473;SDS011;5793;52.238;13.438;2023-02-11T03:48:24;51.93;;;29.90;;
11473;SDS011;5793;52.238;13.438;2023-02-11T03:50:55;53.60;;;30.80;;
11473;SDS011;5793;52.238;13.438;2023-02-11T03:53:27;52.53;;;31.30;;
11473;SDS011;5793;52.238;13.438;2023-02-11T03:55:55;52.77;;;29.70;;
11473;SDS011;5793;52.238;13.438;2023-02-11T03:58:28;49.67;;;31.07;;
11473;SDS011;5793;52.238;13.438;2023-02-11T04:00:56;49.80;;;30.07;;
11473;SDS011;5793;52.238;13.438;2023-02-11T04:03:24;53.53;;;31.33;;
11473;SDS011;5793;52.238;13.438;2023-02-11T04:05:52;52.13;;;29.30;;
11473;SDS011;5793;52.238;13.438;2023-02-11T04:08:21;50.63;;;30.77;;
11473;SDS011;5793;52.238;13.438;2023-02-11T04:10:48;52.00;;;31.93;;
11473;SDS011;5793;52.238;13.438;2023-02-11T04:13:16;48.17;;;30.13;;
11473;SDS011;5793;52.238;13.438;2023-02-11T04:15:44;58.10;;;32.00;;
11473;SDS011;5793;52.238;13.438;2023-02-11T04:18:14;52.50;;;30.20;;
11473;SDS011;5793;52.238;13.438;2023-02-11T04:20:41;54.10;;;31.27;;
11473;SDS011;5793;52.238;13.438;2023-02-11T04:23:09;59.53;;;33.40;;
11473;SDS011;5793;52.238;13.438;2023-02-11T04:25:38;56.57;;;32.40;;
11473;SDS011;5793;52.238;13.438;2023-02-11T04:28:06;55.27;;;33.10;;
11473;SDS011;5793;52.238;13.438;2023-02-11T04:30:34;54.07;;;33.23;;
11473;SDS011;5793;52.238;13.438;2023-02-11T04:33:01;54.73;;;31.30;;
11473;SDS011;5793;52.238;13.438;2023-02-11T04:35:29;55.90;;;31.80;;
11473;SDS011;5793;52.238;13.438;2023-02-11T04:37:57;53.33;;;31.23;;
11473;SDS011;5793;52.238;13.438;2023-02-11T04:40:25;60.97;;;33.33;;
11473;SDS011;5793;52.238;13.438;2023-02-11T04:42:54;55.97;;;32.50;;
11473;SDS011;5793;52.238;13.438;2023-02-11T04:45:22;52.37;;;30.60;;
11473;SDS011;5793;52.238;13.438;2023-02-11T04:47:49;54.33;;;32.50;;
11473;SDS011;5793;52.238;13.438;2023-02-11T04:50:17;60.17;;;32.93;;
11473;SDS011;5793;52.238;13.438;2023-02-11T04:52:45;55.33;;;33.17;;
11473;SDS011;5793;52.238;13.438;2023-02-11T04:55:13;55.17;;;31.17;;
11473;SDS011;5793;52.238;13.438;2023-02-11T04:57:41;57.10;;;33.80;;
11473;SDS011;5793;52.238;13.438;2023-02-11T05:00:10;54.83;;;31.47;;
11473;SDS011;5793;52.238;13.438;2023-02-11T05:02:39;57.17;;;32.77;;
11473;SDS011;5793;52.238;13.438;2023-02-11T05:05:10;54.13;;;32.50;;
11473;SDS011;5793;52.238;13.438;2023-02-11T05:07:38;58.30;;;32.90;;
11473;SDS011;5793;52.238;13.438;2023-02-11T05:10:06;52.47;;;31.17;;
11473;SDS011;5793;52.238;13.438;2023-02-11T05:12:34;54.87;;;32.07;;
11473;SDS011;5793;52.238;13.438;2023-02-11T05:15:02;59.43;;;33.13;;
11473;SDS011;5793;52.238;13.438;2023-02-11T05:17:31;57.87;;;33.57;;
11473;SDS011;5793;52.238;13.438;2023-02-11T05:19:59;59.30;;;33.93;;
11473;SDS011;5793;52.238;13.438;2023-02-11T05:22:27;63.30;;;35.73;;
11473;SDS011;5793;52.238;13.438;2023-02-11T05:24:55;56.40;;;33.93;;
11473;SDS011;5793;52.238;13.438;2023-02-11T05:27:23;57.03;;;33.87;;
11473;SDS011;5793;52.238;13.438;2023-02-11T05:29:50;57.60;;;34.20;;
11473;SDS011;5793;52.238;13.438;2023-02-11T05:32:18;61.83;;;34.60;;
11473;SDS011;5793;52.238;13.438;2023-02-11T05:34:47;59.93;;;33.73;;
11473;SDS011;5793;52.238;13.438;2023-02-11T05:37:15;62.47;;;35.33;;
11473;SDS011;5793;52.238;13.438;2023-02-11T05:39:43;61.87;;;35.03;;
11473;SDS011;5793;52.238;13.438;2023-02-11T05:42:10;60.40;;;34.23;;
11473;SDS011;5793;52.238;13.438;2023-02-11T05:44:39;61.87;;;34.53;;
11473;SDS011;5793;52.238;13.438;2023-02-11T05:47:07;61.97;;;36.07;;
11473;SDS011;5793;52.238;13.438;2023-02-11T05:49:34;60.07;;;35.00;;
11473;SDS011;5793;52.238;13.438;2023-02-11T05:52:03;62.40;;;35.93;;
11473;SDS011;5793;52.238;13.438;2023-02-11T05:54:31;61.90;;;36.00;;
11473;SDS011;5793;52.238;13.438;2023-02-11T05:56:59;63.23;;;34.40;;
11473;SDS011;5793;52.238;13.438;2023-02-11T05:59:27;66.70;;;35.90;;
11473;SDS011;5793;52.238;13.438;2023-02-11T06:01:54;65.90;;;37.77;;
11473;SDS011;5793;52.238;13.438;2023-02-11T06:04:22;65.37;;;36.47;;
11473;SDS011;5793;52.238;13.438;2023-02-11T06:06:50;66.23;;;38.13;;
11473;SDS011;5793;52.238;13.438;2023-02-11T06:09:19;65.50;;;37.03;;
11473;SDS011;5793;52.238;13.438;2023-02-11T06:11:47;67.30;;;39.87;;
11473;SDS011;5793;52.238;13.438;2023-02-11T06:14:16;72.30;;;38.80;;
11473;SDS011;5793;52.238;13.438;2023-02-11T06:16:44;65.17;;;38.87;;
11473;SDS011;5793;52.238;13.438;2023-02-11T06:19:26;73.57;;;37.93;;
11473;SDS011;5793;52.238;13.438;2023-02-11T06:21:54;71.40;;;38.97;;
11473;SDS011;5793;52.238;13.438;2023-02-11T06:24:23;75.03;;;39.67;;
11473;SDS011;5793;52.238;13.438;2023-02-11T06:27:11;78.60;;;40.80;;
11473;SDS011;5793;52.238;13.438;2023-02-11T06:29:39;72.23;;;40.53;;
11473;SDS011;5793;52.238;13.438;2023-02-11T06:32:07;66.63;;;37.93;;
11473;SDS011;5793;52.238;13.438;2023-02-11T06:34:54;70.07;;;38.70;;
11473;SDS011;5793;52.238;13.438;2023-02-11T06:37:22;70.90;;;39.67;;
11473;SDS011;5793;52.238;13.438;2023-02-11T06:39:51;67.13;;;39.17;;
11473;SDS011;5793;52.238;13.438;2023-02-11T06:42:19;74.47;;;40.53;;
11473;SDS011;5793;52.238;13.438;2023-02-11T06:44:47;77.43;;;42.87;;
11473;SDS011;5793;52.238;13.438;2023-02-11T06:47:14;82.37;;;44.40;;
11473;SDS011;5793;52.238;13.438;2023-02-11T06:49:42;79.10;;;43.83;;
11473;SDS011;5793;52.238;13.438;2023-02-11T06:52:10;79.40;;;42.53;;
11473;SDS011;5793;52.238;13.438;2023-02-11T06:54:37;76.60;;;42.03;;
11473;SDS011;5793;52.238;13.438;2023-02-11T06:57:07;77.53;;;41.27;;
11473;SDS011;5793;52.238;13.438;2023-02-11T06:59:34;83.53;;;41.93;;
11473;SDS011;5793;52.238;13.438;2023-02-11T07:02:02;81.43;;;43.10;;
11473;SDS011;5793;52.238;13.438;2023-02-11T07:04:30;80.90;;;44.27;;
11473;SDS011;5793;52.238;13.438;2023-02-11T07:06:58;87.07;;;44.57;;
11473;SDS011;5793;52.238;13.438;2023-02-11T07:09:26;84.43;;;44.50;;
11473;SDS011;5793;52.238;13.438;2023-02-11T07:11:54;83.13;;;41.93;;
11473;SDS011;5793;52.238;13.438;2023-02-11T07:14:23;96.63;;;45.63;;
11473;SDS011;5793;52.238;13.438;2023-02-11T07:16:51;87.93;;;44.13;;
11473;SDS011;5793;52.238;13.438;2023-02-11T07:19:18;86.63;;;50.80;;
11473;SDS011;5793;52.238;13.438;2023-02-11T07:21:46;88.27;;;47.47;;
11473;SDS011;5793;52.238;13.438;2023-02-11T07:24:14;84.67;;;44.17;;
11473;SDS011;5793;52.238;13.438;2023-02-11T07:26:42;90.07;;;46.33;;
11473;SDS011;5793;52.238;13.438;2023-02-11T07:29:10;79.97;;;41.63;;
11473;SDS011;5793;52.238;13.438;2023-02-11T07:31:39;79.23;;;42.87;;
11473;SDS011;5793;52.238;13.438;2023-02-11T07:34:08;77.57;;;41.53;;
11473;SDS011;5793;52.238;13.438;2023-02-11T07:36:37;81.17;;;42.47;;
11473;SDS011;5793;52.238;13.438;2023-02-11T07:39:04;76.93;;;39.60;;
11473;SDS011;5793;52.238;13.438;2023-02-11T07:41:32;72.20;;;41.07;;
11473;SDS011;5793;52.238;13.438;2023-02-11T07:44:03;65.90;;;37.30;;
11473;SDS011;5793;52.238;13.438;2023-02-11T07:46:31;69.03;;;38.97;;
11473;SDS011;5793;52.238;13.438;2023-02-11T07:49:01;68.67;;;37.43;;
11473;SDS011;5793;52.238;13.438;2023-02-11T07:51:29;64.47;;;37.57;;
11473;SDS011;5793;52.238;13.438;2023-02-11T07:53:58;66.80;;;36.73;;
11473;SDS011;5793;52.238;13.438;2023-02-11T07:56:26;65.77;;;38.80;;
11473;SDS011;5793;52.238;13.438;2023-02-11T07:58:55;67.97;;;38.53;;
11473;SDS011;5793;52.238;13.438;2023-02-11T08:01:27;69.00;;;38.57;;
11473;SDS011;5793;52.238;13.438;2023-02-11T08:03:55;72.53;;;38.03;;
11473;SDS011;5793;52.238;13.438;2023-02-11T08:06:25;65.90;;;37.30;;
11473;SDS011;5793;52.238;13.438;2023-02-11T08:08:55;67.67;;;38.20;;
11473;SDS011;5793;52.238;13.438;2023-02-11T08:11:23;63.93;;;36.27;;
11473;SDS011;5793;52.238;13.438;2023-02-11T08:13:53;65.23;;;37.67;;
11473;SDS011;5793;52.238;13.438;2023-02-11T08:16:22;64.90;;;38.10;;
11473;SDS011;5793;52.238;13.438;2023-02-11T08:18:51;63.03;;;35.80;;
11473;SDS011;5793;52.238;13.438;2023-02-11T08:21:22;61.80;;;36.83;;
11473;SDS011;5793;52.238;13.438;2023-02-11T08:23:54;67.85;;;39.05;;
11473;SDS011;5793;52.238;13.438;2023-02-11T08:26:23;68.83;;;36.90;;
11473;SDS011;5793;52.238;13.438;2023-02-11T08:28:52;64.50;;;37.13;;
11473;SDS011;5793;52.238;13.438;2023-02-11T08:31:22;65.13;;;36.17;;
11473;SDS011;5793;52.238;13.438;2023-02-11T08:33:52;65.53;;;37.73;;
11473;SDS011;5793;52.238;13.438;2023-02-11T08:36:23;60.40;;;36.13;;
11473;SDS011;5793;52.238;13.438;2023-02-11T08:38:55;59.00;;;33.57;;
11473;SDS011;5793;52.238;13.438;2023-02-11T08:41:43;64.30;;;36.57;;
11473;SDS011;5793;52.238;13.438;2023-02-11T08:44:11;60.33;;;34.10;;
11473;SDS011;5793;52.238;13.438;2023-02-11T08:46:39;57.57;;;35.27;;
11473;SDS011;5793;52.238;13.438;2023-02-11T08:49:07;63.03;;;34.83;;
11473;SDS011;5793;52.238;13.438;2023-02-11T08:51:36;56.83;;;34.20;;
11473;SDS011;5793;52.238;13.438;2023-02-11T08:54:04;62.03;;;35.80;;
11473;SDS011;5793;52.238;13.438;2023-02-11T08:56:34;67.30;;;37.53;;
11473;SDS011;5793;52.238;13.438;2023-02-11T08:59:03;64.33;;;36.40;;
11473;SDS011;5793;52.238;13.438;2023-02-11T09:01:31;60.47;;;35.60;;
11473;SDS011;5793;52.238;13.438;2023-02-11T09:03:59;62.00;;;35.40;;
11473;SDS011;5793;52.238;13.438;2023-02-11T09:06:27;62.07;;;34.50;;
11473;SDS011;5793;52.238;13.438;2023-02-11T09:08:57;65.27;;;36.60;;
11473;SDS011;5793;52.238;13.438;2023-02-11T09:11:26;60.53;;;36.07;;
11473;SDS011;5793;52.238;13.438;2023-02-11T09:13:59;58.10;;;34.80;;
11473;SDS011;5793;52.238;13.438;2023-02-11T09:16:29;65.63;;;38.13;;
11473;SDS011;5793;52.238;13.438;2023-02-11T09:19:00;62.00;;;36.10;;
11473;SDS011;5793;52.238;13.438;2023-02-11T09:21:29;60.63;;;35.10;;
11473;SDS011;5793;52.238;13.438;2023-02-11T09:23:58;58.47;;;34.50;;
11473;SDS011;5793;52.238;13.438;2023-02-11T09:26:27;64.13;;;34.90;;
11473;SDS011;5793;52.238;13.438;2023-02-11T09:28:55;60.53;;;35.10;;
11473;SDS011;5793;52.238;13.438;2023-02-11T09:31:24;60.60;;;34.47;;
11473;SDS011;5793;52.238;13.438;2023-02-11T09:33:54;58.93;;;32.70;;
11473;SDS011;5793;52.238;13.438;2023-02-11T09:36:24;57.27;;;33.40;;
11473;SDS011;5793;52.238;13.438;2023-02-11T09:38:54;55.00;;;32.87;;
11473;SDS011;5793;52.238;13.438;2023-02-11T09:41:41;57.10;;;33.50;;
11473;SDS011;5793;52.238;13.438;2023-02-11T09:44:24;56.37;;;33.03;;
11473;SDS011;5793;52.238;13.438;2023-02-11T09:46:54;55.57;;;33.20;;
11473;SDS011;5793;52.238;13.438;2023-02-11T09:49:26;55.70;;;33.10;;
11473;SDS011;5793;52.238;13.438;2023-02-11T09:52:02;60.93;;;38.93;;
11473;SDS011;5793;52.238;13.438;2023-02-11T09:54:33;59.40;;;34.00;;
11473;SDS011;5793;52.238;13.438;2023-02-11T09:57:07;56.50;;;32.03;;
11473;SDS011;5793;52.238;13.438;2023-02-11T09:59:53;53.70;;;31.17;;
11473;SDS011;5793;52.238;13.438;2023-02-11T10:02:23;49.33;;;29.67;;
11473;SDS011;5793;52.238;13.438;2023-02-11T10:05:09;54.43;;;31.53;;
11473;SDS011;5793;52.238;13.438;2023-02-11T10:07:47;54.20;;;30.37;;
11473;SDS011;5793;52.238;13.438;2023-02-11T10:10:24;50.00;;;31.67;;
11473;SDS011;5793;52.238;13.438;2023-02-11T10:13:08;50.17;;;30.83;;
11473;SDS011;5793;52.238;13.438;2023-02-11T10:15:50;48.80;;;30.33;;
11473;SDS011;5793;52.238;13.438;2023-02-11T10:18:31;55.07;;;32.23;;
11473;SDS011;5793;52.238;13.438;2023-02-11T10:21:11;55.93;;;32.10;;
11473;SDS011;5793;52.238;13.438;2023-02-11T10:23:46;57.30;;;33.30;;
11473;SDS011;5793;52.238;13.438;2023-02-11T10:26:18;63.27;;;33.90;;
11473;SDS011;5793;52.238;13.438;2023-02-11T10:28:48;56.63;;;33.03;;
11473;SDS011;5793;52.238;13.438;2023-02-11T10:31:20;60.50;;;34.50;;
11473;SDS011;5793;52.238;13.438;2023-02-11T10:33:51;56.87;;;33.63;;
11473;SDS011;5793;52.238;13.438;2023-02-11T10:36:26;65.47;;;35.73;;
11473;SDS011;5793;52.238;13.438;2023-02-11T10:38:56;60.67;;;35.57;;
11473;SDS011;5793;52.238;13.438;2023-02-11T10:41:26;70.00;;;37.00;;
11473;SDS011;5793;52.238;13.438;2023-02-11T10:43:59;63.60;;;35.90;;
11473;SDS011;5793;52.238;13.438;2023-02-11T10:46:28;65.40;;;37.20;;
11473;SDS011;5793;52.238;13.438;2023-02-11T10:48:59;62.60;;;35.73;;
11473;SDS011;5793;52.238;13.438;2023-02-11T10:51:28;62.73;;;37.13;;
11473;SDS011;5793;52.238;13.438;2023-02-11T10:54:10;68.87;;;37.63;;
11473;SDS011;5793;52.238;13.438;2023-02-11T10:56:45;63.43;;;38.40;;
11473;SDS011;5793;52.238;13.438;2023-02-11T10:59:20;62.43;;;36.60;;
11473;SDS011;5793;52.238;13.438;2023-02-11T11:01:55;69.77;;;40.53;;
11473;SDS011;5793;52.238;13.438;2023-02-11T11:04:31;68.17;;;38.10;;
11473;SDS011;5793;52.238;13.438;2023-02-11T11:07:09;75.17;;;41.00;;
11473;SDS011;5793;52.238;13.438;2023-02-11T11:09:45;68.50;;;40.10;;
11473;SDS011;5793;52.238;13.438;2023-02-11T11:12:26;67.33;;;39.93;;
11473;SDS011;5793;52.238;13.438;2023-02-11T11:15:14;69.03;;;38.17;;
11473;SDS011;5793;52.238;13.438;2023-02-11T11:17:44;63.87;;;37.60;;
11473;SDS011;5793;52.238;13.438;2023-02-11T11:20:18;69.80;;;38.03;;
11473;SDS011;5793;52.238;13.438;2023-02-11T11:22:48;64.97;;;37.90;;
11473;SDS011;5793;52.238;13.438;2023-02-11T11:25:21;67.87;;;37.67;;
11473;SDS011;5793;52.238;13.438;2023-02-11T11:27:51;69.27;;;40.60;;
11473;SDS011;5793;52.238;13.438;2023-02-11T11:30:29;70.13;;;40.77;;
11473;SDS011;5793;52.238;13.438;2023-02-11T11:33:00;76.43;;;41.00;;
11473;SDS011;5793;52.238;13.438;2023-02-11T11:35:28;67.50;;;39.47;;
11473;SDS011;5793;52.238;13.438;2023-02-11T11:37:59;71.53;;;38.97;;
11473;SDS011;5793;52.238;13.438;2023-02-11T11:40:29;70.37;;;38.77;;
11473;SDS011;5793;52.238;13.438;2023-02-11T11:43:03;71.77;;;40.23;;
11473;SDS011;5793;52.238;13.438;2023-02-11T11:45:34;69.67;;;39.60;;
11473;SDS011;5793;52.238;13.438;2023-02-11T11:48:03;75.00;;;43.73;;
11473;SDS011;5793;52.238;13.438;2023-02-11T11:50:39;74.90;;;40.17;;
11473;SDS011;5793;52.238;13.438;2023-02-11T11:53:11;77.00;;;42.57;;
11473;SDS011;5793;52.238;13.438;2023-02-11T11:55:42;86.23;;;44.57;;
11473;SDS011;5793;52.238;13.438;2023-02-11T11:58:13;77.83;;;41.83;;
11473;SDS011;5793;52.238;13.438;2023-02-11T12:00:49;77.87;;;42.40;;
11473;SDS011;5793;52.238;13.438;2023-02-11T12:06:33;84.00;;;40.97;;
11473;SDS011;5793;52.238;13.438;2023-02-11T12:09:12;81.03;;;43.20;;
11473;SDS011;5793;52.238;13.438;2023-02-11T12:11:52;82.07;;;43.60;;
11473;SDS011;5793;52.238;13.438;2023-02-11T12:14:35;79.47;;;45.07;;
11473;SDS011;5793;52.238;13.438;2023-02-11T12:17:19;72.43;;;41.17;;
11473;SDS011;5793;52.238;13.438;2023-02-11T12:20:00;73.40;;;40.73;;
11473;SDS011;5793;52.238;13.438;2023-02-11T12:22:45;73.97;;;42.70;;
11473;SDS011;5793;52.238;13.438;2023-02-11T12:25:30;73.57;;;41.10;;
11473;SDS011;5793;52.238;13.438;2023-02-11T12:28:12;71.70;;;41.13;;
11473;SDS011;5793;52.238;13.438;2023-02-11T12:30:55;77.17;;;40.57;;
11473;SDS011;5793;52.238;13.438;2023-02-11T12:33:39;74.30;;;40.77;;
11473;SDS011;5793;52.238;13.438;2023-02-11T12:36:24;68.67;;;39.33;;
11473;SDS011;5793;52.238;13.438;2023-02-11T12:39:02;70.77;;;39.03;;
11473;SDS011;5793;52.238;13.438;2023-02-11T12:41:40;70.63;;;38.90;;
11473;SDS011;5793;52.238;13.438;2023-02-11T12:44:43;67.23;;;38.37;;
11473;SDS011;5793;52.238;13.438;2023-02-11T12:47:24;71.47;;;39.63;;
11473;SDS011;5793;52.238;13.438;2023-02-11T12:50:05;72.20;;;39.20;;
11473;SDS011;5793;52.238;13.438;2023-02-11T12:52:43;65.67;;;38.40;;
11473;SDS011;5793;52.238;13.438;2023-02-11T12:55:23;66.40;;;39.00;;
11473;SDS011;5793;52.238;13.438;2023-02-11T12:57:55;68.77;;;38.47;;
11473;SDS011;5793;52.238;13.438;2023-02-11T13:00:26;64.20;;;37.20;;
11473;SDS011;5793;52.238;13.438;2023-02-11T13:02:59;73.23;;;39.03;;
11473;SDS011;5793;52.238;13.438;2023-02-11T13:05:32;73.57;;;41.97;;
11473;SDS011;5793;52.238;13.438;2023-02-11T13:08:04;77.30;;;45.80;;
11473;SDS011;5793;52.238;13.438;2023-02-11T13:10:36;69.90;;;42.07;;
11473;SDS011;5793;52.238;13.438;2023-02-11T13:13:10;68.57;;;38.73;;
11473;SDS011;5793;52.238;13.438;2023-02-11T13:15:45;80.77;;;46.73;;
11473;SDS011;5793;52.238;13.438;2023-02-11T13:18:29;109.20;;;64.80;;
11473;SDS011;5793;52.238;13.438;2023-02-11T13:24:06;56.00;;;32.73;;
11473;SDS011;5793;52.238;13.438;2023-02-11T13:26:40;48.57;;;31.83;;
11473;SDS011;5793;52.238;13.438;2023-02-11T13:29:17;49.73;;;31.60;;
11473;SDS011;5793;52.238;13.438;2023-02-11T13:31:54;52.17;;;29.93;;
11473;SDS011;5793;52.238;13.438;2023-02-11T13:34:23;51.60;;;30.83;;
11473;SDS011;5793;52.238;13.438;2023-02-11T13:36:54;54.50;;;32.20;;
11473;SDS011;5793;52.238;13.438;2023-02-11T13:39:23;52.90;;;32.77;;
11473;SDS011;5793;52.238;13.438;2023-02-11T13:41:52;51.20;;;29.90;;
11473;SDS011;5793;52.238;13.438;2023-02-11T13:44:31;52.53;;;33.23;;
11473;SDS011;5793;52.238;13.438;2023-02-11T13:47:01;86.83;;;55.17;;
11473;SDS011;5793;52.238;13.438;2023-02-11T13:49:50;52.83;;;33.93;;
11473;SDS011;5793;52.238;13.438;2023-02-11T13:52:22;55.47;;;34.73;;
11473;SDS011;5793;52.238;13.438;2023-02-11T13:54:52;49.27;;;32.43;;
11473;SDS011;5793;52.238;13.438;2023-02-11T13:57:28;53.97;;;33.43;;
11473;SDS011;5793;52.238;13.438;2023-02-11T14:03:20;78.27;;;47.27;;
11473;SDS011;5793;52.238;13.438;2023-02-11T14:06:26;99.30;;;61.63;;
11473;SDS011;5793;52.238;13.438;2023-02-11T14:09:36;82.27;;;49.37;;
11473;SDS011;5793;52.238;13.438;2023-02-11T14:12:15;49.30;;;28.83;;
11473;SDS011;5793;52.238;13.438;2023-02-11T14:15:15;44.00;;;29.27;;
11473;SDS011;5793;52.238;13.438;2023-02-11T14:17:51;48.63;;;29.50;;
11473;SDS011;5793;52.238;13.438;2023-02-11T14:20:35;47.83;;;32.33;;
11473;SDS011;5793;52.238;13.438;2023-02-11T14:23:17;40.20;;;25.30;;
11473;SDS011;5793;52.238;13.438;2023-02-11T14:25:54;43.07;;;28.50;;
11473;SDS011;5793;52.238;13.438;2023-02-11T14:28:45;40.93;;;25.10;;
11473;SDS011;5793;52.238;13.438;2023-02-11T14:31:16;41.53;;;27.17;;
11473;SDS011;5793;52.238;13.438;2023-02-11T14:33:51;42.93;;;25.33;;
11473;SDS011;5793;52.238;13.438;2023-02-11T14:36:37;41.27;;;24.57;;
11473;SDS011;5793;52.238;13.438;2023-02-11T14:39:16;39.27;;;24.07;;
11473;SDS011;5793;52.238;13.438;2023-02-11T14:41:53;35.47;;;22.87;;
11473;SDS011;5793;52.238;13.438;2023-02-11T14:44:22;37.10;;;22.50;;
11473;SDS011;5793;52.238;13.438;2023-02-11T14:46:53;35.17;;;23.00;;
11473;SDS011;5793;52.238;13.438;2023-02-11T14:49:24;33.27;;;21.30;;
11473;SDS011;5793;52.238;13.438;2023-02-11T14:51:55;33.47;;;22.50;;
11473;SDS011;5793;52.238;13.438;2023-02-11T14:54:28;34.43;;;22.17;;
11473;SDS011;5793;52.238;13.438;2023-02-11T14:57:06;36.40;;;21.60;;
11473;SDS011;5793;52.238;13.438;2023-02-11T14:59:36;32.17;;;20.47;;
11473;SDS011;5793;52.238;13.438;2023-02-11T15:02:12;34.43;;;22.43;;
11473;SDS011;5793;52.238;13.438;2023-02-11T15:04:47;31.27;;;19.93;;